Hillcrest, Florida
Current Conditions -  °F | °C
As of 12:53 PM on Monday 24 Nov 2014 (Local Time) from KHWO Reporting Station
Scattered Clouds Scattered Clouds  
Wind Chill: 31°   Ceiling: Unl
Heat Index: 36°   Visibility: 10mi
Dew Point: 23°   Wind: 15mph
Humidity: 63%   Direction: 150°SSE
Pressure: 29.97"   Gusts: 22mph
Location:  26.0179°N, 80.2031°W
Report Text: KHWO 241753Z 15013G19KT 10SM FEW028 SCT041 31/23 A2997 RMK AO2 SLP150 T03110233 10311 20239 58020
Loading
Personal Weather Stations






























Interactive Weather Map New forecast layout! Learn more

10-Day Weather Forecast

Advertisements
Track Severe Weather on mobile